sensor_id;sensor_type;location;lat;lon;timestamp;P1;durP1;ratioP1;P2;durP2;ratioP2
21519;SDS011;10921;53.614;9.882;2023-05-10T00:00:44;18.05;;;14.93;;
21519;SDS011;10921;53.614;9.882;2023-05-10T00:03:11;16.58;;;14.95;;
21519;SDS011;10921;53.614;9.882;2023-05-10T00:05:38;16.50;;;14.90;;
21519;SDS011;10921;53.614;9.882;2023-05-10T00:08:04;17.05;;;15.10;;
21519;SDS011;10921;53.614;9.882;2023-05-10T00:10:31;16.77;;;15.18;;
21519;SDS011;10921;53.614;9.882;2023-05-10T00:12:57;16.60;;;14.98;;
21519;SDS011;10921;53.614;9.882;2023-05-10T00:15:24;21.25;;;15.68;;
21519;SDS011;10921;53.614;9.882;2023-05-10T00:17:50;17.08;;;15.27;;
21519;SDS011;10921;53.614;9.882;2023-05-10T00:20:17;17.30;;;15.35;;
21519;SDS011;10921;53.614;9.882;2023-05-10T00:22:44;18.35;;;15.27;;
21519;SDS011;10921;53.614;9.882;2023-05-10T00:25:11;17.02;;;15.40;;
21519;SDS011;10921;53.614;9.882;2023-05-10T00:27:37;17.98;;;15.60;;
21519;SDS011;10921;53.614;9.882;2023-05-10T00:30:06;15.90;;;14.60;;
21519;SDS011;10921;53.614;9.882;2023-05-10T00:32:35;16.63;;;15.02;;
21519;SDS011;10921;53.614;9.882;2023-05-10T00:35:02;18.98;;;15.00;;
21519;SDS011;10921;53.614;9.882;2023-05-10T00:37:29;16.50;;;15.00;;
21519;SDS011;10921;53.614;9.882;2023-05-10T00:39:55;17.17;;;15.57;;
21519;SDS011;10921;53.614;9.882;2023-05-10T00:42:22;16.83;;;15.32;;
21519;SDS011;10921;53.614;9.882;2023-05-10T00:44:48;17.35;;;15.70;;
21519;SDS011;10921;53.614;9.882;2023-05-10T00:47:15;16.20;;;14.77;;
21519;SDS011;10921;53.614;9.882;2023-05-10T00:49:43;17.77;;;15.93;;
21519;SDS011;10921;53.614;9.882;2023-05-10T00:52:09;17.02;;;15.25;;
21519;SDS011;10921;53.614;9.882;2023-05-10T00:54:36;16.77;;;15.40;;
21519;SDS011;10921;53.614;9.882;2023-05-10T00:57:03;17.75;;;15.35;;
21519;SDS011;10921;53.614;9.882;2023-05-10T00:59:29;20.02;;;15.30;;
21519;SDS011;10921;53.614;9.882;2023-05-10T01:01:57;17.95;;;16.27;;
21519;SDS011;10921;53.614;9.882;2023-05-10T01:04:24;17.63;;;15.60;;
21519;SDS011;10921;53.614;9.882;2023-05-10T01:06:52;17.15;;;15.75;;
21519;SDS011;10921;53.614;9.882;2023-05-10T01:09:20;17.58;;;15.93;;
21519;SDS011;10921;53.614;9.882;2023-05-10T01:11:47;16.90;;;15.50;;
21519;SDS011;10921;53.614;9.882;2023-05-10T01:14:14;16.60;;;15.10;;
21519;SDS011;10921;53.614;9.882;2023-05-10T01:16:44;21.67;;;16.10;;
21519;SDS011;10921;53.614;9.882;2023-05-10T01:19:17;17.35;;;15.52;;
21519;SDS011;10921;53.614;9.882;2023-05-10T01:24:56;16.67;;;15.35;;
21519;SDS011;10921;53.614;9.882;2023-05-10T01:40:56;18.10;;;16.50;;
21519;SDS011;10921;53.614;9.882;2023-05-10T01:43:28;17.27;;;15.77;;
21519;SDS011;10921;53.614;9.882;2023-05-10T01:45:59;19.35;;;16.15;;
21519;SDS011;10921;53.614;9.882;2023-05-10T01:48:40;18.55;;;16.52;;
21519;SDS011;10921;53.614;9.882;2023-05-10T01:51:14;18.00;;;16.10;;
21519;SDS011;10921;53.614;9.882;2023-05-10T01:53:46;21.77;;;15.95;;
21519;SDS011;10921;53.614;9.882;2023-05-10T01:56:14;17.85;;;16.23;;
21519;SDS011;10921;53.614;9.882;2023-05-10T01:58:43;17.52;;;15.88;;
21519;SDS011;10921;53.614;9.882;2023-05-10T02:01:13;17.73;;;16.00;;
21519;SDS011;10921;53.614;9.882;2023-05-10T02:03:41;17.60;;;16.00;;
21519;SDS011;10921;53.614;9.882;2023-05-10T02:06:10;19.70;;;16.35;;
21519;SDS011;10921;53.614;9.882;2023-05-10T02:08:38;17.85;;;16.20;;
21519;SDS011;10921;53.614;9.882;2023-05-10T02:11:07;16.65;;;15.15;;
21519;SDS011;10921;53.614;9.882;2023-05-10T02:13:37;20.58;;;16.95;;
21519;SDS011;10921;53.614;9.882;2023-05-10T02:16:05;17.42;;;15.77;;
21519;SDS011;10921;53.614;9.882;2023-05-10T02:18:33;19.65;;;15.88;;
21519;SDS011;10921;53.614;9.882;2023-05-10T02:21:02;18.27;;;16.38;;
21519;SDS011;10921;53.614;9.882;2023-05-10T02:23:29;17.15;;;15.68;;
21519;SDS011;10921;53.614;9.882;2023-05-10T02:25:57;18.75;;;16.80;;
21519;SDS011;10921;53.614;9.882;2023-05-10T02:28:25;19.10;;;17.30;;
21519;SDS011;10921;53.614;9.882;2023-05-10T02:30:52;17.50;;;15.80;;
21519;SDS011;10921;53.614;9.882;2023-05-10T02:33:20;18.35;;;15.95;;
21519;SDS011;10921;53.614;9.882;2023-05-10T02:35:48;18.50;;;16.73;;
21519;SDS011;10921;53.614;9.882;2023-05-10T02:38:16;17.67;;;16.17;;
21519;SDS011;10921;53.614;9.882;2023-05-10T02:40:46;17.60;;;15.82;;
21519;SDS011;10921;53.614;9.882;2023-05-10T02:43:14;17.58;;;15.90;;
21519;SDS011;10921;53.614;9.882;2023-05-10T02:45:43;17.90;;;16.07;;
21519;SDS011;10921;53.614;9.882;2023-05-10T02:48:13;17.73;;;16.00;;
21519;SDS011;10921;53.614;9.882;2023-05-10T02:50:39;18.55;;;16.95;;
21519;SDS011;10921;53.614;9.882;2023-05-10T02:53:11;18.15;;;16.33;;
21519;SDS011;10921;53.614;9.882;2023-05-10T02:55:41;16.85;;;15.45;;
21519;SDS011;10921;53.614;9.882;2023-05-10T02:58:11;23.17;;;16.10;;
21519;SDS011;10921;53.614;9.882;2023-05-10T03:00:37;18.17;;;16.52;;
21519;SDS011;10921;53.614;9.882;2023-05-10T03:03:04;18.15;;;16.35;;
21519;SDS011;10921;53.614;9.882;2023-05-10T03:05:30;17.98;;;16.23;;
21519;SDS011;10921;53.614;9.882;2023-05-10T03:07:57;15.35;;;13.98;;
21519;SDS011;10921;53.614;9.882;2023-05-10T03:10:26;15.73;;;12.35;;
21519;SDS011;10921;53.614;9.882;2023-05-10T03:21:07;13.27;;;11.95;;
21519;SDS011;10921;53.614;9.882;2023-05-10T03:23:43;14.73;;;12.38;;
21519;SDS011;10921;53.614;9.882;2023-05-10T03:26:15;18.27;;;12.73;;
21519;SDS011;10921;53.614;9.882;2023-05-10T03:28:46;14.90;;;12.70;;
21519;SDS011;10921;53.614;9.882;2023-05-10T03:31:14;13.80;;;12.50;;
21519;SDS011;10921;53.614;9.882;2023-05-10T03:33:45;14.10;;;12.30;;
21519;SDS011;10921;53.614;9.882;2023-05-10T03:36:15;16.15;;;13.40;;
21519;SDS011;10921;53.614;9.882;2023-05-10T03:38:42;14.23;;;13.02;;
21519;SDS011;10921;53.614;9.882;2023-05-10T03:41:08;14.27;;;12.98;;
21519;SDS011;10921;53.614;9.882;2023-05-10T03:43:35;14.55;;;13.05;;
21519;SDS011;10921;53.614;9.882;2023-05-10T03:46:02;14.35;;;12.90;;
21519;SDS011;10921;53.614;9.882;2023-05-10T03:48:29;14.25;;;12.80;;
21519;SDS011;10921;53.614;9.882;2023-05-10T03:50:56;15.20;;;12.55;;
21519;SDS011;10921;53.614;9.882;2023-05-10T03:53:23;15.80;;;13.20;;
21519;SDS011;10921;53.614;9.882;2023-05-10T03:55:50;13.77;;;12.45;;
21519;SDS011;10921;53.614;9.882;2023-05-10T03:58:16;14.40;;;13.10;;
21519;SDS011;10921;53.614;9.882;2023-05-10T04:00:43;13.73;;;12.43;;
21519;SDS011;10921;53.614;9.882;2023-05-10T04:03:11;14.15;;;12.70;;
21519;SDS011;10921;53.614;9.882;2023-05-10T04:05:39;13.80;;;12.23;;
21519;SDS011;10921;53.614;9.882;2023-05-10T04:08:06;15.18;;;12.70;;
21519;SDS011;10921;53.614;9.882;2023-05-10T04:10:32;13.68;;;12.38;;
21519;SDS011;10921;53.614;9.882;2023-05-10T04:12:59;13.45;;;12.15;;
21519;SDS011;10921;53.614;9.882;2023-05-10T04:15:25;14.40;;;12.95;;
21519;SDS011;10921;53.614;9.882;2023-05-10T04:17:52;14.15;;;12.85;;
21519;SDS011;10921;53.614;9.882;2023-05-10T04:20:19;13.57;;;12.30;;
21519;SDS011;10921;53.614;9.882;2023-05-10T04:22:46;13.57;;;12.18;;
21519;SDS011;10921;53.614;9.882;2023-05-10T04:25:13;14.80;;;13.25;;
21519;SDS011;10921;53.614;9.882;2023-05-10T04:27:39;15.20;;;12.77;;
21519;SDS011;10921;53.614;9.882;2023-05-10T04:30:06;14.85;;;12.60;;
21519;SDS011;10921;53.614;9.882;2023-05-10T04:32:33;14.02;;;12.75;;
21519;SDS011;10921;53.614;9.882;2023-05-10T04:34:59;17.17;;;13.48;;
21519;SDS011;10921;53.614;9.882;2023-05-10T04:37:29;18.85;;;13.23;;
21519;SDS011;10921;53.614;9.882;2023-05-10T04:39:55;15.30;;;12.80;;
21519;SDS011;10921;53.614;9.882;2023-05-10T04:42:21;13.88;;;12.48;;
21519;SDS011;10921;53.614;9.882;2023-05-10T04:44:48;14.60;;;13.13;;
21519;SDS011;10921;53.614;9.882;2023-05-10T04:47:14;23.98;;;14.07;;
21519;SDS011;10921;53.614;9.882;2023-05-10T04:49:42;14.70;;;13.07;;
21519;SDS011;10921;53.614;9.882;2023-05-10T04:52:08;14.68;;;12.60;;
21519;SDS011;10921;53.614;9.882;2023-05-10T04:54:35;15.40;;;12.85;;
21519;SDS011;10921;53.614;9.882;2023-05-10T04:57:01;15.70;;;13.75;;
21519;SDS011;10921;53.614;9.882;2023-05-10T04:59:28;14.25;;;12.95;;
21519;SDS011;10921;53.614;9.882;2023-05-10T05:01:54;14.75;;;13.23;;
21519;SDS011;10921;53.614;9.882;2023-05-10T05:04:21;14.85;;;13.32;;
21519;SDS011;10921;53.614;9.882;2023-05-10T05:06:49;14.40;;;13.15;;
21519;SDS011;10921;53.614;9.882;2023-05-10T05:09:19;15.27;;;13.88;;
21519;SDS011;10921;53.614;9.882;2023-05-10T05:11:45;14.75;;;13.35;;
21519;SDS011;10921;53.614;9.882;2023-05-10T05:14:12;14.43;;;13.13;;
21519;SDS011;10921;53.614;9.882;2023-05-10T05:16:38;15.70;;;13.70;;
21519;SDS011;10921;53.614;9.882;2023-05-10T05:19:05;17.08;;;13.13;;
21519;SDS011;10921;53.614;9.882;2023-05-10T05:21:32;15.18;;;13.48;;
21519;SDS011;10921;53.614;9.882;2023-05-10T05:23:59;14.60;;;13.05;;
21519;SDS011;10921;53.614;9.882;2023-05-10T05:26:26;15.80;;;14.15;;
21519;SDS011;10921;53.614;9.882;2023-05-10T05:28:52;16.25;;;13.43;;
21519;SDS011;10921;53.614;9.882;2023-05-10T05:31:20;15.48;;;13.90;;
21519;SDS011;10921;53.614;9.882;2023-05-10T05:33:47;16.98;;;13.75;;
21519;SDS011;10921;53.614;9.882;2023-05-10T05:36:13;15.52;;;13.60;;
21519;SDS011;10921;53.614;9.882;2023-05-10T05:38:40;15.98;;;13.40;;
21519;SDS011;10921;53.614;9.882;2023-05-10T05:41:06;15.27;;;13.68;;
21519;SDS011;10921;53.614;9.882;2023-05-10T05:43:33;15.80;;;14.10;;
21519;SDS011;10921;53.614;9.882;2023-05-10T05:46:03;15.05;;;13.52;;
21519;SDS011;10921;53.614;9.882;2023-05-10T05:48:30;15.43;;;13.43;;
21519;SDS011;10921;53.614;9.882;2023-05-10T05:50:57;14.80;;;13.20;;
21519;SDS011;10921;53.614;9.882;2023-05-10T05:53:23;15.65;;;13.60;;
21519;SDS011;10921;53.614;9.882;2023-05-10T05:55:53;15.07;;;13.43;;
21519;SDS011;10921;53.614;9.882;2023-05-10T05:58:21;17.83;;;13.52;;
21519;SDS011;10921;53.614;9.882;2023-05-10T06:00:51;15.55;;;14.05;;
21519;SDS011;10921;53.614;9.882;2023-05-10T06:03:18;14.60;;;13.20;;
21519;SDS011;10921;53.614;9.882;2023-05-10T06:05:45;13.52;;;12.43;;
21519;SDS011;10921;53.614;9.882;2023-05-10T06:08:12;19.98;;;13.60;;
21519;SDS011;10921;53.614;9.882;2023-05-10T06:10:39;14.75;;;13.50;;
21519;SDS011;10921;53.614;9.882;2023-05-10T06:13:05;14.63;;;12.98;;
21519;SDS011;10921;53.614;9.882;2023-05-10T06:15:32;14.60;;;13.30;;
21519;SDS011;10921;53.614;9.882;2023-05-10T06:17:58;18.75;;;14.25;;
21519;SDS011;10921;53.614;9.882;2023-05-10T06:20:25;20.80;;;13.88;;
21519;SDS011;10921;53.614;9.882;2023-05-10T06:22:52;17.60;;;14.82;;
21519;SDS011;10921;53.614;9.882;2023-05-10T06:25:18;15.15;;;13.88;;
21519;SDS011;10921;53.614;9.882;2023-05-10T06:27:45;18.35;;;13.45;;
21519;SDS011;10921;53.614;9.882;2023-05-10T06:30:19;16.63;;;13.48;;
21519;SDS011;10921;53.614;9.882;2023-05-10T06:32:46;22.42;;;15.10;;
21519;SDS011;10921;53.614;9.882;2023-05-10T06:35:12;15.73;;;14.35;;
21519;SDS011;10921;53.614;9.882;2023-05-10T06:37:39;20.92;;;13.57;;
21519;SDS011;10921;53.614;9.882;2023-05-10T06:40:06;14.90;;;13.45;;
21519;SDS011;10921;53.614;9.882;2023-05-10T06:42:33;17.90;;;13.57;;
21519;SDS011;10921;53.614;9.882;2023-05-10T06:45:00;19.80;;;13.77;;
21519;SDS011;10921;53.614;9.882;2023-05-10T06:47:26;15.15;;;13.77;;
21519;SDS011;10921;53.614;9.882;2023-05-10T06:49:53;16.27;;;13.48;;
21519;SDS011;10921;53.614;9.882;2023-05-10T06:52:19;17.85;;;13.82;;
21519;SDS011;10921;53.614;9.882;2023-05-10T06:54:46;15.00;;;13.60;;
21519;SDS011;10921;53.614;9.882;2023-05-10T06:57:12;30.02;;;14.50;;
21519;SDS011;10921;53.614;9.882;2023-05-10T06:59:56;14.75;;;13.38;;
21519;SDS011;10921;53.614;9.882;2023-05-10T07:02:22;16.17;;;13.82;;
21519;SDS011;10921;53.614;9.882;2023-05-10T07:04:49;14.80;;;13.40;;
21519;SDS011;10921;53.614;9.882;2023-05-10T07:07:18;16.40;;;14.77;;
21519;SDS011;10921;53.614;9.882;2023-05-10T07:09:45;15.30;;;13.88;;
21519;SDS011;10921;53.614;9.882;2023-05-10T07:12:11;17.20;;;15.40;;
21519;SDS011;10921;53.614;9.882;2023-05-10T07:14:41;14.70;;;13.17;;
21519;SDS011;10921;53.614;9.882;2023-05-10T07:17:08;15.43;;;12.93;;
21519;SDS011;10921;53.614;9.882;2023-05-10T07:19:35;15.70;;;13.27;;
21519;SDS011;10921;53.614;9.882;2023-05-10T07:22:02;16.15;;;13.45;;
21519;SDS011;10921;53.614;9.882;2023-05-10T07:24:28;15.88;;;13.23;;
21519;SDS011;10921;53.614;9.882;2023-05-10T07:26:55;14.70;;;13.13;;
21519;SDS011;10921;53.614;9.882;2023-05-10T07:29:22;15.27;;;13.57;;
21519;SDS011;10921;53.614;9.882;2023-05-10T07:31:48;14.90;;;13.40;;
21519;SDS011;10921;53.614;9.882;2023-05-10T07:34:15;16.63;;;13.55;;
21519;SDS011;10921;53.614;9.882;2023-05-10T07:36:42;14.82;;;13.40;;
21519;SDS011;10921;53.614;9.882;2023-05-10T07:39:08;17.65;;;13.75;;
21519;SDS011;10921;53.614;9.882;2023-05-10T07:41:35;14.65;;;13.38;;
21519;SDS011;10921;53.614;9.882;2023-05-10T07:44:03;14.70;;;13.35;;
21519;SDS011;10921;53.614;9.882;2023-05-10T07:46:30;14.55;;;13.27;;
21519;SDS011;10921;53.614;9.882;2023-05-10T07:48:57;14.20;;;12.90;;
21519;SDS011;10921;53.614;9.882;2023-05-10T07:51:23;16.40;;;13.88;;
21519;SDS011;10921;53.614;9.882;2023-05-10T07:53:50;21.77;;;17.20;;
21519;SDS011;10921;53.614;9.882;2023-05-10T07:56:23;17.45;;;15.82;;
21519;SDS011;10921;53.614;9.882;2023-05-10T07:58:54;21.75;;;16.38;;
21519;SDS011;10921;53.614;9.882;2023-05-10T08:01:20;18.52;;;16.65;;
21519;SDS011;10921;53.614;9.882;2023-05-10T08:03:47;18.15;;;16.13;;
21519;SDS011;10921;53.614;9.882;2023-05-10T08:06:16;20.00;;;16.45;;
21519;SDS011;10921;53.614;9.882;2023-05-10T08:08:43;18.02;;;16.08;;
21519;SDS011;10921;53.614;9.882;2023-05-10T08:11:16;17.45;;;15.90;;
21519;SDS011;10921;53.614;9.882;2023-05-10T08:13:44;18.17;;;16.27;;
21519;SDS011;10921;53.614;9.882;2023-05-10T08:16:10;18.00;;;16.40;;
21519;SDS011;10921;53.614;9.882;2023-05-10T08:18:37;18.00;;;16.52;;
21519;SDS011;10921;53.614;9.882;2023-05-10T08:21:04;17.83;;;16.13;;
21519;SDS011;10921;53.614;9.882;2023-05-10T08:23:32;20.42;;;16.65;;
21519;SDS011;10921;53.614;9.882;2023-05-10T08:25:59;19.58;;;16.88;;
21519;SDS011;10921;53.614;9.882;2023-05-10T08:28:26;17.58;;;15.82;;
21519;SDS011;10921;53.614;9.882;2023-05-10T08:30:53;18.55;;;16.55;;
21519;SDS011;10921;53.614;9.882;2023-05-10T08:33:19;17.42;;;15.68;;
21519;SDS011;10921;53.614;9.882;2023-05-10T08:35:46;17.88;;;16.38;;
21519;SDS011;10921;53.614;9.882;2023-05-10T08:38:13;18.80;;;16.50;;
21519;SDS011;10921;53.614;9.882;2023-05-10T08:40:41;18.85;;;16.88;;
21519;SDS011;10921;53.614;9.882;2023-05-10T08:43:10;19.02;;;16.85;;
21519;SDS011;10921;53.614;9.882;2023-05-10T08:45:41;17.70;;;16.08;;
21519;SDS011;10921;53.614;9.882;2023-05-10T08:48:11;20.33;;;16.05;;
21519;SDS011;10921;53.614;9.882;2023-05-10T08:50:39;18.90;;;16.90;;
21519;SDS011;10921;53.614;9.882;2023-05-10T08:53:09;18.02;;;16.20;;
21519;SDS011;10921;53.614;9.882;2023-05-10T08:55:37;24.38;;;16.88;;
21519;SDS011;10921;53.614;9.882;2023-05-10T08:58:05;20.70;;;18.65;;
21519;SDS011;10921;53.614;9.882;2023-05-10T09:00:32;21.08;;;19.17;;
21519;SDS011;10921;53.614;9.882;2023-05-10T09:03:00;18.67;;;16.83;;
21519;SDS011;10921;53.614;9.882;2023-05-10T09:05:27;18.42;;;16.58;;
21519;SDS011;10921;53.614;9.882;2023-05-10T09:07:54;18.85;;;17.02;;
21519;SDS011;10921;53.614;9.882;2023-05-10T09:10:21;19.55;;;17.27;;
21519;SDS011;10921;53.614;9.882;2023-05-10T09:12:48;19.48;;;17.30;;
21519;SDS011;10921;53.614;9.882;2023-05-10T09:15:16;20.67;;;18.75;;
21519;SDS011;10921;53.614;9.882;2023-05-10T09:17:45;22.23;;;20.05;;
21519;SDS011;10921;53.614;9.882;2023-05-10T09:20:12;18.67;;;16.98;;
21519;SDS011;10921;53.614;9.882;2023-05-10T09:22:38;19.92;;;18.00;;
21519;SDS011;10921;53.614;9.882;2023-05-10T09:25:10;20.17;;;18.45;;
21519;SDS011;10921;53.614;9.882;2023-05-10T09:27:39;19.33;;;17.73;;
21519;SDS011;10921;53.614;9.882;2023-05-10T09:30:06;20.77;;;18.58;;
21519;SDS011;10921;53.614;9.882;2023-05-10T09:32:37;22.25;;;18.25;;
21519;SDS011;10921;53.614;9.882;2023-05-10T09:35:11;19.77;;;17.73;;
21519;SDS011;10921;53.614;9.882;2023-05-10T09:37:43;20.63;;;18.42;;
21519;SDS011;10921;53.614;9.882;2023-05-10T09:40:15;18.20;;;16.52;;
21519;SDS011;10921;53.614;9.882;2023-05-10T09:42:56;19.45;;;17.58;;
21519;SDS011;10921;53.614;9.882;2023-05-10T09:45:29;19.30;;;17.48;;
21519;SDS011;10921;53.614;9.882;2023-05-10T09:47:57;19.50;;;17.60;;
21519;SDS011;10921;53.614;9.882;2023-05-10T09:50:25;19.55;;;17.75;;
21519;SDS011;10921;53.614;9.882;2023-05-10T09:52:53;23.40;;;17.52;;
21519;SDS011;10921;53.614;9.882;2023-05-10T09:55:24;22.48;;;19.15;;
21519;SDS011;10921;53.614;9.882;2023-05-10T09:57:59;20.90;;;19.08;;
21519;SDS011;10921;53.614;9.882;2023-05-10T10:00:27;26.45;;;20.77;;
21519;SDS011;10921;53.614;9.882;2023-05-10T10:03:00;22.25;;;20.08;;
21519;SDS011;10921;53.614;9.882;2023-05-10T10:05:31;22.77;;;20.38;;
21519;SDS011;10921;53.614;9.882;2023-05-10T10:07:59;25.33;;;20.70;;
21519;SDS011;10921;53.614;9.882;2023-05-10T10:10:27;22.95;;;20.80;;
21519;SDS011;10921;53.614;9.882;2023-05-10T10:12:54;25.25;;;22.85;;
21519;SDS011;10921;53.614;9.882;2023-05-10T10:15:22;25.30;;;22.67;;
21519;SDS011;10921;53.614;9.882;2023-05-10T10:17:52;33.22;;;30.35;;
21519;SDS011;10921;53.614;9.882;2023-05-10T10:20:20;36.47;;;33.17;;
21519;SDS011;10921;53.614;9.882;2023-05-10T10:22:48;41.17;;;35.20;;
21519;SDS011;10921;53.614;9.882;2023-05-10T10:25:15;42.25;;;36.05;;
21519;SDS011;10921;53.614;9.882;2023-05-10T10:30:28;43.10;;;35.75;;
21519;SDS011;10921;53.614;9.882;2023-05-10T10:33:13;43.42;;;37.63;;
21519;SDS011;10921;53.614;9.882;2023-05-10T10:35:57;41.70;;;37.22;;
21519;SDS011;10921;53.614;9.882;2023-05-10T10:38:34;41.97;;;37.55;;
21519;SDS011;10921;53.614;9.882;2023-05-10T10:41:09;43.22;;;38.72;;
21519;SDS011;10921;53.614;9.882;2023-05-10T10:43:36;44.33;;;39.80;;
21519;SDS011;10921;53.614;9.882;2023-05-10T10:48:47;45.40;;;40.70;;
21519;SDS011;10921;53.614;9.882;2023-05-10T10:51:15;46.80;;;40.35;;
21519;SDS011;10921;53.614;9.882;2023-05-10T10:53:42;45.08;;;39.92;;
21519;SDS011;10921;53.614;9.882;2023-05-10T10:56:12;45.22;;;40.70;;
21519;SDS011;10921;53.614;9.882;2023-05-10T10:58:41;44.25;;;40.00;;
21519;SDS011;10921;53.614;9.882;2023-05-10T11:01:15;43.78;;;39.38;;
21519;SDS011;10921;53.614;9.882;2023-05-10T11:04:29;47.80;;;41.00;;
21519;SDS011;10921;53.614;9.882;2023-05-10T11:06:30;45.38;;;40.78;;
21519;SDS011;10921;53.614;9.882;2023-05-10T11:08:58;43.72;;;39.28;;
21519;SDS011;10921;53.614;9.882;2023-05-10T11:11:25;42.80;;;38.70;;
21519;SDS011;10921;53.614;9.882;2023-05-10T11:13:52;44.40;;;39.70;;
21519;SDS011;10921;53.614;9.882;2023-05-10T11:16:19;42.72;;;38.53;;
21519;SDS011;10921;53.614;9.882;2023-05-10T11:19:03;43.30;;;38.67;;
21519;SDS011;10921;53.614;9.882;2023-05-10T11:24:13;38.92;;;35.33;;
21519;SDS011;10921;53.614;9.882;2023-05-10T11:26:53;37.55;;;34.25;;
21519;SDS011;10921;53.614;9.882;2023-05-10T11:29:20;37.15;;;33.85;;
21519;SDS011;10921;53.614;9.882;2023-05-10T11:31:46;34.88;;;31.48;;
21519;SDS011;10921;53.614;9.882;2023-05-10T11:34:27;33.78;;;30.60;;
21519;SDS011;10921;53.614;9.882;2023-05-10T11:37:02;33.45;;;30.33;;
21519;SDS011;10921;53.614;9.882;2023-05-10T11:39:29;34.63;;;31.52;;
21519;SDS011;10921;53.614;9.882;2023-05-10T11:41:57;34.53;;;30.50;;
21519;SDS011;10921;53.614;9.882;2023-05-10T11:44:29;34.17;;;31.05;;
21519;SDS011;10921;53.614;9.882;2023-05-10T11:47:00;34.17;;;30.92;;
21519;SDS011;10921;53.614;9.882;2023-05-10T11:49:27;35.80;;;32.60;;
21519;SDS011;10921;53.614;9.882;2023-05-10T11:52:03;38.10;;;34.25;;
21519;SDS011;10921;53.614;9.882;2023-05-10T11:54:33;40.78;;;36.80;;
21519;SDS011;10921;53.614;9.882;2023-05-10T11:57:01;39.95;;;36.35;;
21519;SDS011;10921;53.614;9.882;2023-05-10T11:59:28;38.88;;;35.42;;
21519;SDS011;10921;53.614;9.882;2023-05-10T12:01:54;39.72;;;36.17;;
21519;SDS011;10921;53.614;9.882;2023-05-10T12:04:21;41.35;;;37.47;;
21519;SDS011;10921;53.614;9.882;2023-05-10T12:06:48;43.33;;;39.15;;
21519;SDS011;10921;53.614;9.882;2023-05-10T12:09:14;42.67;;;38.80;;
21519;SDS011;10921;53.614;9.882;2023-05-10T12:11:44;43.33;;;39.08;;
21519;SDS011;10921;53.614;9.882;2023-05-10T12:14:11;43.67;;;39.58;;
21519;SDS011;10921;53.614;9.882;2023-05-10T12:16:37;41.65;;;37.85;;
21519;SDS011;10921;53.614;9.882;2023-05-10T12:19:04;43.05;;;39.03;;
21519;SDS011;10921;53.614;9.882;2023-05-10T12:21:34;41.33;;;37.65;;
21519;SDS011;10921;53.614;9.882;2023-05-10T12:24:03;39.72;;;35.83;;
21519;SDS011;10921;53.614;9.882;2023-05-10T12:26:31;35.65;;;32.38;;
21519;SDS011;10921;53.614;9.882;2023-05-10T12:31:52;30.70;;;27.77;;
21519;SDS011;10921;53.614;9.882;2023-05-10T12:37:05;30.42;;;27.83;;
21519;SDS011;10921;53.614;9.882;2023-05-10T12:39:40;31.13;;;28.13;;
21519;SDS011;10921;53.614;9.882;2023-05-10T12:42:11;31.73;;;29.13;;
21519;SDS011;10921;53.614;9.882;2023-05-10T12:44:38;33.33;;;30.42;;
21519;SDS011;10921;53.614;9.882;2023-05-10T12:47:05;33.13;;;30.25;;
21519;SDS011;10921;53.614;9.882;2023-05-10T12:49:32;29.17;;;26.67;;
21519;SDS011;10921;53.614;9.882;2023-05-10T12:51:58;27.45;;;25.00;;
21519;SDS011;10921;53.614;9.882;2023-05-10T12:54:24;27.38;;;24.77;;
21519;SDS011;10921;53.614;9.882;2023-05-10T12:56:51;26.75;;;24.52;;
21519;SDS011;10921;53.614;9.882;2023-05-10T12:59:18;25.70;;;23.50;;
21519;SDS011;10921;53.614;9.882;2023-05-10T13:01:44;27.33;;;24.92;;
21519;SDS011;10921;53.614;9.882;2023-05-10T13:04:11;26.05;;;23.65;;
21519;SDS011;10921;53.614;9.882;2023-05-10T13:06:37;25.50;;;23.00;;
21519;SDS011;10921;53.614;9.882;2023-05-10T13:09:04;25.58;;;23.38;;
21519;SDS011;10921;53.614;9.882;2023-05-10T13:11:30;26.60;;;24.20;;
21519;SDS011;10921;53.614;9.882;2023-05-10T13:13:57;26.05;;;23.88;;
21519;SDS011;10921;53.614;9.882;2023-05-10T13:16:24;26.42;;;24.02;;
21519;SDS011;10921;53.614;9.882;2023-05-10T13:18:50;25.25;;;23.05;;
21519;SDS011;10921;53.614;9.882;2023-05-10T13:21:20;27.27;;;24.92;;
21519;SDS011;10921;53.614;9.882;2023-05-10T13:23:47;28.70;;;26.20;;
21519;SDS011;10921;53.614;9.882;2023-05-10T13:26:13;27.58;;;24.48;;
21519;SDS011;10921;53.614;9.882;2023-05-10T13:28:40;24.08;;;21.98;;
21519;SDS011;10921;53.614;9.882;2023-05-10T13:31:06;24.90;;;22.42;;
21519;SDS011;10921;53.614;9.882;2023-05-10T13:33:33;23.02;;;20.88;;
21519;SDS011;10921;53.614;9.882;2023-05-10T13:36:00;23.42;;;21.15;;
21519;SDS011;10921;53.614;9.882;2023-05-10T13:38:26;21.88;;;19.65;;
21519;SDS011;10921;53.614;9.882;2023-05-10T13:40:52;21.95;;;19.95;;
21519;SDS011;10921;53.614;9.882;2023-05-10T13:43:19;22.55;;;20.48;;
21519;SDS011;10921;53.614;9.882;2023-05-10T13:45:45;22.60;;;20.55;;
21519;SDS011;10921;53.614;9.882;2023-05-10T13:48:12;24.08;;;21.92;;
21519;SDS011;10921;53.614;9.882;2023-05-10T13:50:38;23.17;;;21.05;;
21519;SDS011;10921;53.614;9.882;2023-05-10T13:53:05;23.33;;;21.30;;
21519;SDS011;10921;53.614;9.882;2023-05-10T13:55:31;23.25;;;21.13;;
21519;SDS011;10921;53.614;9.882;2023-05-10T13:57:58;23.17;;;21.17;;
21519;SDS011;10921;53.614;9.882;2023-05-10T14:00:24;23.88;;;21.83;;
21519;SDS011;10921;53.614;9.882;2023-05-10T14:02:51;25.42;;;23.17;;
21519;SDS011;10921;53.614;9.882;2023-05-10T14:05:18;25.48;;;23.27;;
21519;SDS011;10921;53.614;9.882;2023-05-10T14:07:50;24.85;;;22.55;;
21519;SDS011;10921;53.614;9.882;2023-05-10T14:10:17;21.48;;;19.58;;
21519;SDS011;10921;53.614;9.882;2023-05-10T14:12:43;21.08;;;19.27;;
21519;SDS011;10921;53.614;9.882;2023-05-10T14:15:10;20.48;;;18.77;;
21519;SDS011;10921;53.614;9.882;2023-05-10T14:17:37;20.30;;;18.45;;
21519;SDS011;10921;53.614;9.882;2023-05-10T14:20:04;19.98;;;18.05;;
21519;SDS011;10921;53.614;9.882;2023-05-10T14:22:33;20.83;;;19.02;;
21519;SDS011;10921;53.614;9.882;2023-05-10T14:25:00;20.40;;;18.70;;
21519;SDS011;10921;53.614;9.882;2023-05-10T14:27:27;21.40;;;19.23;;
21519;SDS011;10921;53.614;9.882;2023-05-10T14:29:53;22.55;;;20.58;;
21519;SDS011;10921;53.614;9.882;2023-05-10T14:32:20;22.33;;;20.48;;
21519;SDS011;10921;53.614;9.882;2023-05-10T14:34:46;21.90;;;20.10;;
21519;SDS011;10921;53.614;9.882;2023-05-10T14:37:13;21.80;;;19.67;;
21519;SDS011;10921;53.614;9.882;2023-05-10T14:39:40;21.15;;;19.25;;
21519;SDS011;10921;53.614;9.882;2023-05-10T14:42:13;21.23;;;19.42;;
21519;SDS011;10921;53.614;9.882;2023-05-10T14:44:39;20.95;;;19.08;;
21519;SDS011;10921;53.614;9.882;2023-05-10T14:47:05;20.88;;;19.05;;
21519;SDS011;10921;53.614;9.882;2023-05-10T14:49:33;20.63;;;18.80;;
21519;SDS011;10921;53.614;9.882;2023-05-10T14:51:59;21.02;;;17.55;;
21519;SDS011;10921;53.614;9.882;2023-05-10T14:54:26;19.63;;;17.73;;
21519;SDS011;10921;53.614;9.882;2023-05-10T14:56:53;20.02;;;18.33;;
21519;SDS011;10921;53.614;9.882;2023-05-10T14:59:20;19.83;;;18.02;;
21519;SDS011;10921;53.614;9.882;2023-05-10T15:01:46;20.70;;;18.77;;
21519;SDS011;10921;53.614;9.882;2023-05-10T15:04:14;20.00;;;18.30;;